Kincheloe, Michigan
Current Conditions -  °F | °C
As of 2:15 PM on Monday 22 Dec 2014 (Local Time) from KCIU Reporting Station
Clear Clear  
Wind Chill: 23°   Ceiling: Unl
Heat Index: 34°   Visibility: 10mi
Dew Point: 30°   Wind: 18mph
Humidity: 87%   Direction: 130°SE
Pressure: 29.97"   Gusts: NA
Location:  46.15°N, 84.28°W
Report Text: KCIU 221915Z AUTO 13016KT 10SM CLR 01/M01 A2997 RMK AO1
Loading
Personal Weather Stations






























Interactive Weather Map New forecast layout! Learn more

10-Day Weather Forecast

Advertisements
Track Severe Weather on mobile